createdAt,value
2022-12-17T00:01:21.838Z,114.40
2022-12-17T00:04:08.357Z,125.10
2022-12-17T00:06:56.496Z,129.20
2022-12-17T00:09:48.632Z,126.40
2022-12-17T00:12:36.462Z,126.50
2022-12-17T00:15:23.550Z,124.20
2022-12-17T00:18:09.883Z,122.80
2022-12-17T00:20:56.688Z,115.50
2022-12-17T00:23:43.049Z,124.70
2022-12-17T00:26:29.501Z,126.00
2022-12-17T00:29:15.899Z,138.60
2022-12-17T00:32:02.405Z,133.30
2022-12-17T00:34:48.719Z,122.20
2022-12-17T00:37:35.196Z,121.60
2022-12-17T00:40:22.328Z,112.50
2022-12-17T00:43:28.922Z,115.50
2022-12-17T00:46:16.213Z,121.00
2022-12-17T00:49:03.571Z,127.70
2022-12-17T00:51:50.056Z,116.00
2022-12-17T00:54:36.207Z,110.50
2022-12-17T00:57:22.883Z,110.50
2022-12-17T01:00:09.337Z,119.60
2022-12-17T01:02:55.362Z,119.80
2022-12-17T01:05:42.999Z,122.10
2022-12-17T01:08:34.051Z,118.00
2022-12-17T01:11:26.362Z,109.50
2022-12-17T01:14:12.709Z,118.20
2022-12-17T01:16:58.825Z,116.00
2022-12-17T01:19:45.153Z,125.30
2022-12-17T01:22:31.939Z,112.20
2022-12-17T01:25:18.346Z,112.10
2022-12-17T01:28:09.051Z,115.70
2022-12-17T01:30:57.190Z,105.90
2022-12-17T01:33:54.429Z,114.40
2022-12-17T01:36:41.074Z,109.40
2022-12-17T01:39:27.405Z,98.80
2022-12-17T01:42:14.142Z,114.80
2022-12-17T01:45:00.482Z,122.10
2022-12-17T01:47:57.929Z,120.40
2022-12-17T01:50:50.467Z,125.40
2022-12-17T01:53:41.220Z,109.90
2022-12-17T01:56:28.223Z,129.30
2022-12-17T01:59:15.199Z,119.30
2022-12-17T02:02:01.702Z,108.20
2022-12-17T02:04:48.203Z,106.30
2022-12-17T02:07:46.987Z,117.80
2022-12-17T02:11:05.773Z,119.50
2022-12-17T02:14:00.239Z,118.60
2022-12-17T02:16:55.524Z,126.70
2022-12-17T02:20:03.060Z,109.40
2022-12-17T02:23:15.341Z,120.20
2022-12-17T02:26:14.078Z,113.10
2022-12-17T02:29:05.826Z,112.00
2022-12-17T02:31:54.249Z,129.20
2022-12-17T02:34:40.352Z,114.20
2022-12-17T02:37:26.716Z,100.40
2022-12-17T02:40:13.116Z,115.10
2022-12-17T02:43:00.525Z,110.30
2022-12-17T02:45:46.806Z,111.90
2022-12-17T02:48:33.108Z,104.60
2022-12-17T02:51:19.578Z,114.20
2022-12-17T02:54:10.469Z,111.00
2022-12-17T02:56:57.250Z,109.30
2022-12-17T02:59:43.610Z,110.10
2022-12-17T03:02:30.286Z,127.40
2022-12-17T03:05:43.355Z,113.80
2022-12-17T03:08:24.554Z,104.40
2022-12-17T03:11:10.931Z,114.90
2022-12-17T03:13:57.411Z,112.40
2022-12-17T03:16:43.980Z,120.90
2022-12-17T03:19:30.485Z,102.60
2022-12-17T03:22:17.126Z,107.70
2022-12-17T03:25:03.416Z,98.00
2022-12-17T03:27:50.023Z,92.90
2022-12-17T03:30:37.837Z,92.20
2022-12-17T03:33:27.529Z,97.40
2022-12-17T03:36:14.172Z,83.40
2022-12-17T03:39:00.844Z,90.20
2022-12-17T03:41:47.271Z,99.00
2022-12-17T03:44:50.705Z,96.40
2022-12-17T03:50:24.482Z,103.20
2022-12-17T03:53:11.106Z,97.90
2022-12-17T03:55:57.615Z,95.40
2022-12-17T03:58:44.161Z,101.90
2022-12-17T04:01:30.511Z,91.10
2022-12-17T04:04:17.075Z,90.30
2022-12-17T04:07:03.327Z,96.70
2022-12-17T04:09:49.687Z,85.90
2022-12-17T04:12:36.208Z,93.40
2022-12-17T04:15:23.734Z,88.60
2022-12-17T04:18:10.174Z,98.50
2022-12-17T04:20:56.947Z,91.00
2022-12-17T04:23:43.298Z,93.20
2022-12-17T04:26:29.739Z,87.60
2022-12-17T04:29:16.122Z,79.90
2022-12-17T04:32:02.467Z,83.70
2022-12-17T04:34:48.893Z,92.00
2022-12-17T04:37:35.652Z,83.20
2022-12-17T04:40:22.458Z,81.90
2022-12-17T04:43:08.620Z,89.00
2022-12-17T04:45:56.605Z,97.60
2022-12-17T04:48:50.676Z,106.80
2022-12-17T04:51:36.985Z,108.70
2022-12-17T04:54:23.244Z,100.80
2022-12-17T04:57:10.030Z,98.60
2022-12-17T04:59:56.497Z,101.40
2022-12-17T05:02:43.166Z,97.40
2022-12-17T05:05:29.651Z,83.70
2022-12-17T05:08:17.210Z,86.10
2022-12-17T05:11:03.765Z,98.20
2022-12-17T05:13:50.371Z,85.50
2022-12-17T05:16:36.707Z,89.10
2022-12-17T05:19:23.052Z,86.10
2022-12-17T05:22:09.691Z,85.10
2022-12-17T05:24:56.286Z,98.00
2022-12-17T05:27:42.863Z,77.00
2022-12-17T05:30:29.687Z,85.20
2022-12-17T05:33:21.380Z,78.20
2022-12-17T05:36:07.819Z,73.00
2022-12-17T05:38:55.535Z,90.60
2022-12-17T05:41:42.033Z,91.30
2022-12-17T05:44:28.612Z,83.60
2022-12-17T05:47:14.973Z,78.90
2022-12-17T05:50:01.090Z,79.40
2022-12-17T05:52:47.387Z,84.70
2022-12-17T05:55:34.087Z,80.60
2022-12-17T05:58:29.574Z,88.10
2022-12-17T06:01:17.931Z,87.00
2022-12-17T06:04:05.003Z,80.80
2022-12-17T06:06:51.343Z,80.60
2022-12-17T06:09:40.261Z,78.80
2022-12-17T06:12:30.724Z,89.90
2022-12-17T06:15:30.611Z,80.70
2022-12-17T06:18:17.393Z,86.80
2022-12-17T06:21:07.299Z,91.20
2022-12-17T06:23:53.900Z,92.30
2022-12-17T06:26:42.148Z,85.00
2022-12-17T06:29:29.981Z,86.20
2022-12-17T06:32:16.391Z,97.60
2022-12-17T06:35:03.218Z,88.90
2022-12-17T06:37:49.634Z,88.40
2022-12-17T06:40:36.002Z,72.60
2022-12-17T06:43:22.532Z,77.70
2022-12-17T06:46:10.800Z,89.20
2022-12-17T06:48:57.159Z,83.70
2022-12-17T06:51:43.551Z,79.40
2022-12-17T06:54:30.199Z,79.50
2022-12-17T06:57:16.807Z,90.10
2022-12-17T07:00:03.373Z,86.60
2022-12-17T07:02:49.764Z,81.70
2022-12-17T07:05:36.587Z,81.20
2022-12-17T07:08:23.564Z,93.00
2022-12-17T07:11:09.901Z,82.00
2022-12-17T07:13:56.776Z,75.60
2022-12-17T07:16:43.291Z,73.50
2022-12-17T07:19:29.848Z,67.20
2022-12-17T07:22:16.529Z,74.70
2022-12-17T07:25:02.935Z,65.60
2022-12-17T07:27:49.502Z,76.90
2022-12-17T07:30:36.107Z,82.40
2022-12-17T07:33:25.517Z,69.80
2022-12-17T07:36:12.425Z,76.70
2022-12-17T07:38:59.259Z,78.70
2022-12-17T07:41:45.960Z,75.70
2022-12-17T07:44:32.266Z,64.70
2022-12-17T07:47:18.384Z,69.30
2022-12-17T07:50:04.443Z,63.50
2022-12-17T07:52:50.978Z,61.20
2022-12-17T07:55:37.550Z,65.60
2022-12-17T07:58:35.962Z,64.30
2022-12-17T08:01:23.041Z,61.50
2022-12-17T08:04:10.006Z,60.30
2022-12-17T08:07:02.865Z,63.00
2022-12-17T08:09:52.345Z,64.80
2022-12-17T08:12:38.554Z,68.30
2022-12-17T08:15:25.567Z,65.60
2022-12-17T08:18:24.499Z,62.50
2022-12-17T08:21:14.119Z,65.30
2022-12-17T08:24:00.653Z,65.30
2022-12-17T08:26:48.330Z,59.30
2022-12-17T08:29:35.208Z,70.40
2022-12-17T08:32:21.745Z,66.10
2022-12-17T08:35:08.065Z,64.60
2022-12-17T08:37:54.907Z,63.70
2022-12-17T08:40:41.153Z,63.50
2022-12-17T08:43:27.621Z,74.20
2022-12-17T08:46:13.965Z,74.10
2022-12-17T08:49:00.367Z,61.60
2022-12-17T08:51:47.074Z,64.50
2022-12-17T08:54:33.365Z,69.70
2022-12-17T08:57:30.624Z,68.20
2022-12-17T09:00:18.284Z,65.40
2022-12-17T09:03:04.865Z,65.60
2022-12-17T09:05:51.471Z,75.30
2022-12-17T09:08:37.868Z,69.00
2022-12-17T09:11:24.177Z,67.70
2022-12-17T09:14:10.675Z,68.30
2022-12-17T09:16:57.203Z,79.10
2022-12-17T09:19:43.636Z,74.10
2022-12-17T09:22:30.281Z,72.00
2022-12-17T09:25:16.786Z,75.10
2022-12-17T09:28:02.950Z,77.40
2022-12-17T09:31:03.001Z,93.50
2022-12-17T09:33:49.720Z,96.10
2022-12-17T09:36:36.052Z,94.20
2022-12-17T09:39:22.648Z,81.50
2022-12-17T09:42:49.774Z,78.20
2022-12-17T09:45:54.916Z,70.20
2022-12-17T09:48:55.746Z,53.30
2022-12-17T09:51:46.584Z,54.20
2022-12-17T09:55:01.477Z,48.90
2022-12-17T09:57:52.797Z,54.50
2022-12-17T10:00:46.425Z,54.60
2022-12-17T10:03:40.526Z,53.60
2022-12-17T10:06:37.935Z,47.00
2022-12-17T10:09:35.086Z,49.40
2022-12-17T10:12:34.681Z,56.20
2022-12-17T10:15:22.614Z,44.40
2022-12-17T10:18:09.003Z,57.90
2022-12-17T10:21:07.086Z,48.40
2022-12-17T10:23:53.435Z,54.50
2022-12-17T10:36:16.517Z,52.40
2022-12-17T10:39:03.397Z,83.80
2022-12-17T10:41:54.622Z,63.50
2022-12-17T10:44:46.880Z,52.90
2022-12-17T10:47:42.869Z,50.00
2022-12-17T10:50:35.761Z,53.40
2022-12-17T10:53:35.042Z,52.20
2022-12-17T10:56:23.006Z,52.80
2022-12-17T10:59:13.034Z,53.40
2022-12-17T11:02:01.034Z,50.40
2022-12-17T11:04:53.545Z,49.40
2022-12-17T11:07:55.351Z,53.20
2022-12-17T11:10:44.827Z,48.00
2022-12-17T11:13:59.346Z,41.70
2022-12-17T11:16:56.588Z,48.30
2022-12-17T11:20:20.098Z,46.90
2022-12-17T11:23:16.277Z,44.40
2022-12-17T11:26:21.088Z,43.10
2022-12-17T11:29:08.013Z,47.60
2022-12-17T11:32:07.802Z,47.20
2022-12-17T11:35:31.105Z,44.30
2022-12-17T11:38:51.419Z,51.50
2022-12-17T11:42:32.719Z,35.90
2022-12-17T11:45:42.696Z,43.00
2022-12-17T11:48:58.331Z,39.00
2022-12-17T11:52:02.390Z,45.90
2022-12-17T11:55:03.439Z,42.90
2022-12-17T11:58:14.620Z,48.80
2022-12-17T12:01:14.602Z,49.10
2022-12-17T12:04:30.813Z,48.00
2022-12-17T12:07:39.740Z,50.60
2022-12-17T12:10:38.966Z,53.40
2022-12-17T12:13:51.493Z,63.60
2022-12-17T12:16:59.991Z,54.50
2022-12-17T12:20:19.364Z,54.20
2022-12-17T12:23:22.288Z,62.40
2022-12-17T12:26:33.414Z,50.80
2022-12-17T12:29:54.952Z,53.60
2022-12-17T12:32:56.743Z,57.70
2022-12-17T12:35:45.283Z,57.60
2022-12-17T12:38:46.342Z,57.30
2022-12-17T12:42:22.646Z,57.20
2022-12-17T12:45:48.751Z,53.10
2022-12-17T12:48:44.690Z,52.40
2022-12-17T12:51:53.569Z,49.90
2022-12-17T12:54:42.009Z,48.20
2022-12-17T12:57:56.382Z,52.90
2022-12-17T13:01:02.150Z,55.80
2022-12-17T13:04:09.840Z,56.30
2022-12-17T13:06:43.823Z,59.70
2022-12-17T13:09:18.169Z,48.50
2022-12-17T13:11:55.360Z,54.10
2022-12-17T13:14:29.395Z,52.20
2022-12-17T13:17:18.616Z,51.40
2022-12-17T13:19:56.312Z,52.40
2022-12-17T13:22:24.840Z,52.90
2022-12-17T13:24:57.851Z,60.50
2022-12-17T13:27:35.255Z,52.10
2022-12-17T13:30:31.255Z,55.40
2022-12-17T13:33:32.900Z,50.20
2022-12-17T13:36:24.787Z,58.80
2022-12-17T13:39:00.026Z,55.90
2022-12-17T13:41:33.902Z,63.90
2022-12-17T13:44:25.247Z,67.00
2022-12-17T13:46:54.619Z,73.80
2022-12-17T13:49:31.803Z,66.90
2022-12-17T13:52:20.421Z,60.60
2022-12-17T13:54:48.445Z,70.00
2022-12-17T13:57:25.266Z,62.00
2022-12-17T13:59:59.073Z,56.60
2022-12-17T14:02:32.302Z,47.70
2022-12-17T14:05:07.686Z,49.00
2022-12-17T14:07:39.582Z,45.20
2022-12-17T14:10:16.781Z,50.20
2022-12-17T14:12:45.070Z,52.20
2022-12-17T14:15:32.080Z,49.90
2022-12-17T14:18:01.356Z,54.70
2022-12-17T14:20:32.426Z,57.20
2022-12-17T14:23:01.840Z,56.90
2022-12-17T14:25:36.096Z,51.20
2022-12-17T14:28:30.736Z,53.50
2022-12-17T14:31:28.802Z,52.10
2022-12-17T14:34:13.823Z,46.00
2022-12-17T14:36:43.555Z,46.90
2022-12-17T14:39:23.408Z,40.60
2022-12-17T14:42:10.225Z,55.60
2022-12-17T14:44:59.644Z,49.80
2022-12-17T14:47:34.496Z,49.40
2022-12-17T14:50:18.029Z,64.70
2022-12-17T14:52:49.837Z,53.20
2022-12-17T14:55:57.594Z,56.60
2022-12-17T14:58:27.922Z,52.60
2022-12-17T15:01:11.881Z,55.60
2022-12-17T15:03:42.308Z,57.60
2022-12-17T15:06:11.567Z,61.00
2022-12-17T15:08:56.272Z,54.30
2022-12-17T15:11:23.551Z,53.50
2022-12-17T15:13:55.893Z,55.90
2022-12-17T15:16:23.660Z,62.10
2022-12-17T15:18:50.274Z,63.50
2022-12-17T15:21:17.828Z,68.10
2022-12-17T15:23:45.065Z,54.00
2022-12-17T15:26:13.341Z,56.10
2022-12-17T15:28:41.093Z,59.20
2022-12-17T15:31:10.949Z,58.80
2022-12-17T15:33:38.102Z,60.20
2022-12-17T15:36:04.960Z,61.40
2022-12-17T15:38:31.514Z,65.00
2022-12-17T15:41:22.645Z,60.00
2022-12-17T15:43:49.222Z,55.60
2022-12-17T15:46:15.880Z,54.00
2022-12-17T15:48:49.551Z,59.30
2022-12-17T15:51:19.810Z,61.80
2022-12-17T15:53:47.682Z,63.70
2022-12-17T15:56:24.634Z,63.20
2022-12-17T15:58:51.345Z,67.70
2022-12-17T16:01:18.902Z,67.40
2022-12-17T16:03:45.553Z,64.70
2022-12-17T16:06:12.685Z,68.80
2022-12-17T16:08:40.393Z,70.50
2022-12-17T16:11:13.069Z,66.20
2022-12-17T16:13:39.922Z,71.20
2022-12-17T16:16:08.073Z,71.40
2022-12-17T16:18:37.965Z,68.80
2022-12-17T16:21:07.928Z,65.00
2022-12-17T16:23:35.225Z,62.20
2022-12-17T16:26:04.457Z,63.80
2022-12-17T16:28:31.609Z,56.50
2022-12-17T16:31:07.815Z,67.30
2022-12-17T16:33:37.740Z,52.60
2022-12-17T16:36:07.020Z,60.20
2022-12-17T16:38:34.438Z,61.60
2022-12-17T16:41:02.679Z,66.90
2022-12-17T16:43:33.442Z,63.30
2022-12-17T16:46:00.067Z,64.60
2022-12-17T16:48:26.891Z,63.10
2022-12-17T16:50:53.349Z,68.50
2022-12-17T16:53:19.929Z,62.30
2022-12-17T16:55:49.123Z,59.10
2022-12-17T16:58:17.310Z,69.90
2022-12-17T17:00:45.054Z,63.30
2022-12-17T17:03:11.911Z,60.60
2022-12-17T17:05:39.314Z,60.70
2022-12-17T17:08:06.310Z,67.00
2022-12-17T17:10:35.564Z,62.10
2022-12-17T17:13:02.578Z,67.20
2022-12-17T17:15:29.066Z,65.30
2022-12-17T17:18:01.789Z,60.20
2022-12-17T17:20:31.565Z,65.40
2022-12-17T17:22:58.024Z,64.30
2022-12-17T17:25:24.994Z,63.40
2022-12-17T17:27:57.420Z,59.20
2022-12-17T17:30:23.747Z,64.50
2022-12-17T17:32:50.245Z,59.50
2022-12-17T17:35:16.778Z,63.90
2022-12-17T17:37:43.200Z,63.20
2022-12-17T17:40:11.526Z,65.40
2022-12-17T17:42:38.105Z,73.70
2022-12-17T17:45:05.911Z,65.40
2022-12-17T17:47:36.241Z,72.10
2022-12-17T17:50:04.685Z,68.10
2022-12-17T17:52:31.178Z,68.90
2022-12-17T17:54:57.571Z,60.80
2022-12-17T17:57:24.315Z,62.50
2022-12-17T17:59:50.800Z,58.00
2022-12-17T18:02:17.318Z,54.90
2022-12-17T18:04:43.868Z,47.60
2022-12-17T18:07:27.339Z,58.80
2022-12-17T18:09:55.231Z,48.80
2022-12-17T18:12:41.554Z,61.50
2022-12-17T18:15:17.706Z,49.20
2022-12-17T18:17:50.416Z,47.50
2022-12-17T18:20:17.318Z,52.90
2022-12-17T18:22:45.189Z,50.90
2022-12-17T18:25:11.883Z,48.40
2022-12-17T18:27:38.754Z,50.40
2022-12-17T18:30:05.830Z,49.40
2022-12-17T18:32:32.386Z,45.50
2022-12-17T18:34:59.297Z,55.00
2022-12-17T18:37:26.022Z,49.00
2022-12-17T18:39:52.508Z,49.10
2022-12-17T18:42:37.640Z,52.60
2022-12-17T18:45:04.794Z,46.90
2022-12-17T18:47:31.491Z,47.60
2022-12-17T18:49:57.981Z,44.50
2022-12-17T18:52:24.571Z,52.70
2022-12-17T18:54:51.177Z,45.20
2022-12-17T18:57:17.636Z,47.90
2022-12-17T18:59:44.297Z,45.30
2022-12-17T19:02:12.650Z,49.50
2022-12-17T19:04:39.613Z,49.00
2022-12-17T19:07:06.442Z,50.50
2022-12-17T19:09:38.804Z,47.30
2022-12-17T19:12:07.850Z,49.40
2022-12-17T19:14:35.918Z,47.90
2022-12-17T19:17:03.478Z,48.80
2022-12-17T19:19:30.034Z,45.60
2022-12-17T19:21:58.973Z,56.40
2022-12-17T19:24:25.743Z,77.80
2022-12-17T19:26:52.458Z,54.20
2022-12-17T19:29:20.059Z,72.60
2022-12-17T19:31:47.119Z,60.90
2022-12-17T19:34:19.397Z,52.00
2022-12-17T19:36:47.104Z,47.70
2022-12-17T19:39:17.235Z,53.50
2022-12-17T19:41:44.324Z,49.60
2022-12-17T19:44:14.097Z,48.30
2022-12-17T19:46:42.019Z,45.30
2022-12-17T19:49:12.544Z,45.50
2022-12-17T19:51:42.296Z,50.80
2022-12-17T19:54:09.594Z,52.10
2022-12-17T19:56:36.151Z,44.50
2022-12-17T19:59:07.279Z,46.90
2022-12-17T20:01:37.661Z,45.90
2022-12-17T20:04:04.983Z,43.50
2022-12-17T20:06:33.698Z,52.00
2022-12-17T20:09:03.000Z,46.40
2022-12-17T20:11:32.306Z,50.20
2022-12-17T20:14:10.180Z,46.90
2022-12-17T20:16:48.654Z,49.00
2022-12-17T20:19:19.052Z,51.30
2022-12-17T20:21:46.020Z,51.90
2022-12-17T20:24:13.531Z,49.50
2022-12-17T20:26:41.012Z,54.90
2022-12-17T20:29:07.971Z,55.20
2022-12-17T20:31:35.479Z,55.60
2022-12-17T20:34:04.660Z,53.60
2022-12-17T20:36:31.493Z,56.00
2022-12-17T20:38:58.465Z,52.40
2022-12-17T20:41:28.994Z,52.80
2022-12-17T20:43:56.513Z,48.60
2022-12-17T20:46:25.082Z,54.90
2022-12-17T20:48:52.106Z,50.30
2022-12-17T20:51:22.722Z,45.30
2022-12-17T20:53:50.172Z,54.90
2022-12-17T20:56:19.525Z,50.80
2022-12-17T20:58:46.366Z,52.50
2022-12-17T21:01:17.901Z,55.30
2022-12-17T21:03:45.443Z,53.00
2022-12-17T21:06:15.845Z,55.80
2022-12-17T21:08:49.329Z,59.30
2022-12-17T21:11:19.999Z,65.50
2022-12-17T21:13:46.558Z,59.60
2022-12-17T21:16:17.731Z,52.10
2022-12-17T21:18:44.394Z,55.80
2022-12-17T21:21:18.762Z,63.30
2022-12-17T21:23:47.113Z,63.60
2022-12-17T21:26:17.950Z,69.10
2022-12-17T21:28:47.909Z,58.30
2022-12-17T21:31:21.432Z,64.80
2022-12-17T21:33:48.830Z,55.20
2022-12-17T21:36:18.301Z,60.00
2022-12-17T21:38:45.540Z,57.80
2022-12-17T21:41:19.214Z,57.40
2022-12-17T21:43:45.727Z,49.70
2022-12-17T21:46:13.290Z,56.80
2022-12-17T21:48:42.479Z,60.70
2022-12-17T21:51:11.708Z,56.80
2022-12-17T21:53:41.901Z,76.60
2022-12-17T21:56:15.475Z,69.80
2022-12-17T21:58:44.020Z,81.70
2022-12-17T22:01:18.860Z,72.30
2022-12-17T22:03:53.681Z,81.60
2022-12-17T22:06:26.175Z,75.70
2022-12-17T22:08:56.268Z,73.70
2022-12-17T22:11:26.937Z,74.70
2022-12-17T22:14:08.877Z,72.30
2022-12-17T22:16:46.590Z,74.80
2022-12-17T22:19:19.011Z,70.50
2022-12-17T22:21:50.492Z,78.40
2022-12-17T22:24:19.843Z,77.20
2022-12-17T22:26:46.690Z,71.20
2022-12-17T22:29:33.843Z,70.20
2022-12-17T22:32:18.904Z,73.90
2022-12-17T22:36:12.752Z,69.60
2022-12-17T22:41:56.831Z,74.70
2022-12-17T22:44:36.714Z,68.40
2022-12-17T22:44:43.761Z,74.80
2022-12-17T22:46:17.692Z,69.10
2022-12-17T22:48:44.232Z,71.00
2022-12-17T22:51:16.885Z,72.20
2022-12-17T22:53:53.432Z,78.10
2022-12-17T22:56:43.059Z,73.50
2022-12-17T22:59:14.796Z,65.20
2022-12-17T23:01:41.248Z,72.60
2022-12-17T23:04:11.663Z,70.10
2022-12-17T23:06:38.058Z,85.00
2022-12-17T23:09:04.439Z,79.00
2022-12-17T23:11:30.901Z,73.60
2022-12-17T23:13:57.356Z,71.50
2022-12-17T23:16:24.179Z,68.00
2022-12-17T23:18:51.569Z,69.60
2022-12-17T23:21:23.427Z,70.30
2022-12-17T23:23:51.578Z,70.50
2022-12-17T23:26:23.605Z,70.90
2022-12-17T23:28:57.833Z,69.00
2022-12-17T23:31:26.619Z,63.20
2022-12-17T23:33:53.278Z,67.70
2022-12-17T23:36:22.309Z,60.80
2022-12-17T23:38:50.370Z,61.00
2022-12-17T23:41:20.524Z,61.20
2022-12-17T23:43:48.496Z,52.20
2022-12-17T23:46:16.967Z,58.60
2022-12-17T23:48:45.538Z,60.30
2022-12-17T23:51:17.900Z,60.80
2022-12-17T23:53:44.645Z,53.60
2022-12-17T23:56:25.461Z,61.00
2022-12-17T23:58:58.176Z,59.10
